Time;durP1;ratioP1;P1;durP2;ratioP2;P2;SDS_P1;SDS_P2;PMS_P1;PMS_P2;Temp;Humidity;BMP_temperature;BMP_pressure;BME280_temperature;BME280_humidity;BME280_pressure;Samples;Min_cycle;Max_cycle;Signal;HPM_P1;HPM_P2
2023/12/18 00:00:13;;;;;;;15.97;11.43;;;;;;;-0.44;100.00;100102.66;5077087;28;20214;-79
2023/12/18 00:02:41;;;;;;;19.07;11.87;;;;;;;-0.35;100.00;100107.06;5076750;28;20243;-81
2023/12/18 00:05:09;;;;;;;23.03;14.00;;;;;;;-0.40;100.00;100106.16;5076498;28;20820;-79
2023/12/18 00:07:35;;;;;;;19.30;13.40;;;;;;;-0.47;100.00;100088.81;5077097;28;20218;-79
2023/12/18 00:10:02;;;;;;;21.03;13.57;;;;;;;-0.50;100.00;100094.00;5077029;28;20203;-81
2023/12/18 00:12:28;;;;;;;18.57;12.73;;;;;;;-0.57;100.00;100087.03;5074785;28;20262;-80
2023/12/18 00:14:55;;;;;;;17.37;12.30;;;;;;;-0.62;100.00;100083.53;5076107;28;20222;-80
2023/12/18 00:17:21;;;;;;;17.90;12.10;;;;;;;-0.66;100.00;100087.84;5076286;28;20210;-81
2023/12/18 00:19:49;;;;;;;19.70;12.37;;;;;;;-0.68;100.00;100083.50;5077072;28;20206;-81
2023/12/18 00:22:15;;;;;;;17.43;11.90;;;;;;;-0.75;100.00;100081.72;5076225;28;20744;-80
2023/12/18 00:24:42;;;;;;;17.90;12.10;;;;;;;-0.79;100.00;100070.47;5075331;28;20586;-81
2023/12/18 00:27:08;;;;;;;20.03;12.83;;;;;;;-0.77;100.00;100070.44;5076276;28;20742;-80
2023/12/18 00:29:35;;;;;;;19.43;13.37;;;;;;;-0.75;100.00;100073.94;5076099;28;20215;-81
2023/12/18 00:32:01;;;;;;;18.87;12.20;;;;;;;-0.76;100.00;100072.19;5076229;28;20234;-79
2023/12/18 00:34:28;;;;;;;22.27;13.43;;;;;;;-0.77;100.00;100079.13;5076308;28;20200;-80
2023/12/18 00:36:55;;;;;;;18.23;12.83;;;;;;;-0.75;100.00;100069.59;5072963;28;20221;-79
2023/12/18 00:39:22;;;;;;;19.87;12.97;;;;;;;-0.77;100.00;100063.53;5075342;28;20206;-80
2023/12/18 00:41:48;;;;;;;21.10;13.97;;;;;;;-0.72;100.00;100055.78;5075360;28;20234;-78
2023/12/18 00:44:15;;;;;;;21.83;13.63;;;;;;;-0.70;100.00;100054.03;5074673;28;20744;-79
2023/12/18 00:46:41;;;;;;;22.40;12.97;;;;;;;-0.75;100.00;100058.38;5074977;28;20229;-80
2023/12/18 00:49:08;;;;;;;20.33;13.87;;;;;;;-0.77;100.00;100057.47;5076538;28;20218;-78
2023/12/18 00:51:34;;;;;;;22.03;13.93;;;;;;;-0.83;100.00;100062.63;5074915;28;20227;-78
2023/12/18 00:54:02;;;;;;;22.17;14.27;;;;;;;-0.87;100.00;100050.50;5074914;28;20202;-78
2023/12/18 00:56:30;;;;;;;19.40;13.57;;;;;;;-0.87;100.00;100046.16;5074576;28;20242;-78
2023/12/18 00:58:56;;;;;;;22.37;13.93;;;;;;;-0.90;100.00;100055.66;5075417;28;20217;-78
2023/12/18 01:01:23;;;;;;;20.43;13.50;;;;;;;-0.88;100.00;100054.81;5075143;28;20231;-78
2023/12/18 01:03:50;;;;;;;21.73;14.00;;;;;;;-0.92;100.00;100058.22;5074839;28;20219;-78
2023/12/18 01:06:16;;;;;;;24.10;14.23;;;;;;;-0.89;100.00;100057.38;5074785;28;20210;-78
2023/12/18 01:08:43;;;;;;;22.17;13.50;;;;;;;-0.88;100.00;100060.00;5075511;28;20215;-79
2023/12/18 01:11:11;;;;;;;24.30;14.73;;;;;;;-0.90;100.00;100058.25;5074357;28;20272;-79
2023/12/18 01:13:37;;;;;;;22.33;14.03;;;;;;;-0.89;100.00;100058.28;5074064;28;20270;-78
2023/12/18 01:16:04;;;;;;;21.83;13.47;;;;;;;-0.90;100.00;100056.53;5073659;28;20233;-78
2023/12/18 01:18:30;;;;;;;19.07;13.50;;;;;;;-0.90;100.00;100063.44;5074997;28;20208;-78
2023/12/18 01:20:57;;;;;;;21.03;13.03;;;;;;;-0.94;100.00;100059.97;5075297;28;20233;-78
2023/12/18 01:23:23;;;;;;;17.63;12.37;;;;;;;-1.00;100.00;100052.13;5075566;28;20215;-79
2023/12/18 01:25:50;;;;;;;17.83;11.30;;;;;;;-1.03;100.00;100048.66;5074472;28;20227;-78
2023/12/18 01:28:18;;;;;;;18.23;12.00;;;;;;;-1.08;100.00;100045.16;5074562;28;20297;-80
2023/12/18 01:30:44;;;;;;;15.77;11.20;;;;;;;-1.14;100.00;100045.09;5074623;28;20221;-79
2023/12/18 01:33:11;;;;;;;15.93;10.83;;;;;;;-1.18;100.00;100044.22;5075177;28;20670;-79
2023/12/18 01:35:37;;;;;;;15.87;10.33;;;;;;;-1.26;100.00;100042.41;5074303;28;20206;-79
2023/12/18 01:38:04;;;;;;;16.27;11.30;;;;;;;-1.28;100.00;100041.56;5075033;28;20213;-79
2023/12/18 01:40:30;;;;;;;15.30;10.07;;;;;;;-1.37;100.00;100046.66;5075323;28;20207;-79
2023/12/18 01:42:57;;;;;;;17.13;10.87;;;;;;;-1.32;100.00;100050.16;5077265;28;20250;-79
2023/12/18 01:45:25;;;;;;;17.53;11.27;;;;;;;-1.32;100.00;100044.97;5077783;28;20246;-79
2023/12/18 01:47:51;;;;;;;16.13;10.13;;;;;;;-1.42;100.00;100038.84;5081302;28;20609;-80
2023/12/18 01:50:18;;;;;;;14.47;10.17;;;;;;;-1.45;100.00;100037.94;5074840;28;20222;-80
2023/12/18 01:52:45;;;;;;;16.60;10.43;;;;;;;-1.47;100.00;100031.88;5073987;28;20239;-79
2023/12/18 01:55:14;;;;;;;14.63;9.93;;;;;;;-1.47;100.00;100029.28;5073796;28;20216;-79
2023/12/18 01:57:41;;;;;;;15.40;10.17;;;;;;;-1.51;100.00;100022.34;5074152;28;20214;-79
2023/12/18 02:00:10;;;;;;;14.57;10.10;;;;;;;-1.49;100.00;100025.78;5073037;28;20222;-78
2023/12/18 02:02:38;;;;;;;15.47;9.93;;;;;;;-1.55;100.00;100020.56;5073818;28;20238;-80
2023/12/18 02:05:05;;;;;;;16.50;10.10;;;;;;;-1.60;100.00;100017.94;5073596;28;20331;-80
2023/12/18 02:07:34;;;;;;;14.93;9.40;;;;;;;-1.61;100.00;100020.53;5073850;28;20221;-80
2023/12/18 02:10:00;;;;;;;15.23;10.00;;;;;;;-1.56;100.00;100024.00;5074057;28;20213;-78
2023/12/18 02:12:27;;;;;;;17.87;11.40;;;;;;;-1.52;100.00;100021.47;5073859;28;20236;-78
2023/12/18 02:14:57;;;;;;;19.23;11.37;;;;;;;-1.49;100.00;100020.59;5074930;28;20215;-78
2023/12/18 02:17:23;;;;;;;17.17;11.53;;;;;;;-1.46;100.00;100016.34;5075377;28;20594;-81
2023/12/18 02:20:04;;;;;;;19.37;13.23;;;;;;;-1.39;100.00;100017.25;5075771;28;20212;-80
2023/12/18 02:22:36;;;;;;;14.30;10.97;;;;;;;-1.43;100.00;100025.84;5079308;28;20227;-80
2023/12/18 02:25:05;;;;;;;14.73;9.77;;;;;;;-1.45;100.00;100018.06;5077222;28;20238;-80
2023/12/18 02:27:31;;;;;;;13.93;9.57;;;;;;;-1.50;100.00;100013.69;5077543;28;20211;-80
2023/12/18 02:29:58;;;;;;;16.00;9.33;;;;;;;-1.55;100.00;100010.19;5077371;28;20205;-81
2023/12/18 02:32:24;;;;;;;12.17;9.20;;;;;;;-1.59;100.00;100011.03;5077786;28;20229;-79
2023/12/18 02:34:51;;;;;;;15.67;10.30;;;;;;;-1.56;100.00;100004.16;5077044;28;20214;-80
2023/12/18 02:37:18;;;;;;;18.77;11.47;;;;;;;-1.52;100.00;100005.03;5077651;28;20205;-78
2023/12/18 02:39:46;;;;;;;17.30;10.77;;;;;;;-1.52;100.00;99990.38;5077666;28;20680;-80
2023/12/18 02:42:12;;;;;;;19.97;10.70;;;;;;;-1.46;100.00;99999.91;5077092;28;20230;-80
2023/12/18 02:44:39;;;;;;;15.80;10.60;;;;;;;-1.41;100.00;99993.88;5078125;28;20233;-80
2023/12/18 02:47:05;;;;;;;19.60;11.17;;;;;;;-1.34;100.00;99989.63;5077816;28;20213;-80
2023/12/18 02:49:32;;;;;;;14.43;9.97;;;;;;;-1.41;100.00;99988.69;5077778;28;20213;-81
2023/12/18 02:51:58;;;;;;;15.53;10.00;;;;;;;-1.39;100.00;99983.53;5077950;28;20230;-78
2023/12/18 02:54:25;;;;;;;17.53;10.60;;;;;;;-1.39;100.00;99989.59;5078122;28;20209;-78
2023/12/18 02:56:53;;;;;;;16.07;10.70;;;;;;;-1.38;100.00;99987.84;5077526;28;20220;-78
2023/12/18 02:59:19;;;;;;;17.90;12.03;;;;;;;-1.34;100.00;99981.84;5077811;28;20207;-79
2023/12/18 03:01:45;;;;;;;20.20;12.33;;;;;;;-1.30;100.00;99986.22;5077441;28;20372;-78
2023/12/18 03:04:12;;;;;;;19.37;12.40;;;;;;;-1.26;100.00;99978.44;5077740;28;20214;-80
2023/12/18 03:06:38;;;;;;;18.13;10.87;;;;;;;-1.23;100.00;99988.84;5077067;28;20673;-79
2023/12/18 03:09:05;;;;;;;22.37;12.23;;;;;;;-1.21;100.00;99979.34;5077934;28;20695;-79
2023/12/18 03:11:31;;;;;;;19.80;12.03;;;;;;;-1.19;100.00;99979.34;5077575;28;20237;-78
2023/12/18 03:13:59;;;;;;;17.40;12.17;;;;;;;-1.17;100.00;99977.66;5078095;28;20696;-79
2023/12/18 03:16:26;;;;;;;21.97;13.53;;;;;;;-1.14;100.00;99964.69;5077798;28;20210;-79
2023/12/18 03:18:52;;;;;;;20.07;12.23;;;;;;;-1.08;100.00;99975.09;5078087;28;20213;-79
2023/12/18 03:21:19;;;;;;;18.50;12.33;;;;;;;-1.06;100.00;99969.06;5078252;28;20238;-79
2023/12/18 03:23:45;;;;;;;18.33;12.53;;;;;;;-1.01;100.00;99969.06;5077703;28;20672;-79
2023/12/18 03:26:11;;;;;;;20.73;12.63;;;;;;;-0.97;100.00;99963.94;5077495;28;20223;-79
2023/12/18 03:28:38;;;;;;;18.17;12.10;;;;;;;-0.97;100.00;99961.34;5078064;28;20207;-79
2023/12/18 03:31:06;;;;;;;17.80;12.00;;;;;;;-0.95;100.00;99964.81;5077838;28;20225;-79
2023/12/18 03:33:32;;;;;;;16.00;11.40;;;;;;;-0.92;100.00;99967.41;5076999;28;20223;-78
2023/12/18 03:35:59;;;;;;;17.43;12.10;;;;;;;-0.93;100.00;99959.63;5076597;28;20207;-78
2023/12/18 03:38:25;;;;;;;16.40;11.07;;;;;;;-0.96;100.00;99962.19;5076648;28;20207;-79
2023/12/18 03:40:52;;;;;;;15.97;10.67;;;;;;;-0.99;100.00;99968.22;5076820;28;20214;-78
2023/12/18 03:43:18;;;;;;;16.03;10.87;;;;;;;-1.04;100.00;99961.28;5076545;28;20210;-80
2023/12/18 03:45:44;;;;;;;15.03;9.97;;;;;;;-1.09;100.00;99965.59;5075969;28;20697;-80
2023/12/18 03:48:12;;;;;;;15.33;10.20;;;;;;;-1.07;100.00;99954.34;5075494;28;20212;-80
2023/12/18 03:50:39;;;;;;;15.60;9.30;;;;;;;-1.09;100.00;99957.78;5073704;28;20601;-80
2023/12/18 03:53:06;;;;;;;15.43;10.00;;;;;;;-1.04;100.00;99963.88;5073722;28;20227;-80
2023/12/18 03:55:34;;;;;;;14.23;9.00;;;;;;;-1.04;100.00;99964.72;5075195;28;20206;-79
2023/12/18 03:58:00;;;;;;;14.40;9.93;;;;;;;-1.06;100.00;99957.81;5075617;28;20214;-79
2023/12/18 04:00:27;;;;;;;14.77;10.10;;;;;;;-1.09;100.00;99957.78;5074786;28;20214;-79
2023/12/18 04:02:54;;;;;;;16.03;10.53;;;;;;;-1.08;100.00;99956.94;5075604;28;20245;-79
2023/12/18 04:05:23;;;;;;;20.03;10.97;;;;;;;-1.09;100.00;99950.00;5075479;28;20230;-79
2023/12/18 04:07:50;;;;;;;15.20;10.57;;;;;;;-1.10;100.00;99953.47;5076542;28;20253;-79
2023/12/18 04:10:16;;;;;;;13.63;9.80;;;;;;;-1.13;100.00;99948.25;5076595;28;20218;-79
2023/12/18 04:12:43;;;;;;;13.10;10.23;;;;;;;-1.17;100.00;99943.94;5075942;28;20229;-79
2023/12/18 04:15:11;;;;;;;17.13;10.70;;;;;;;-1.19;100.00;99949.09;5075058;28;20216;-79
2023/12/18 04:17:38;;;;;;;14.47;10.23;;;;;;;-1.21;100.00;99950.81;5075961;28;20207;-79
2023/12/18 04:20:05;;;;;;;15.27;10.27;;;;;;;-1.18;100.00;99961.19;5076105;28;20213;-79
2023/12/18 04:22:33;;;;;;;14.10;9.87;;;;;;;-1.08;100.00;99962.13;5075505;28;20231;-79
2023/12/18 04:24:59;;;;;;;15.93;10.63;;;;;;;-1.07;100.00;99956.06;5074710;28;20233;-79
2023/12/18 04:27:26;;;;;;;17.93;11.13;;;;;;;-1.02;100.00;99959.56;5075651;28;20218;-79
2023/12/18 04:29:52;;;;;;;17.03;11.13;;;;;;;-1.05;100.00;99956.97;5075677;28;20688;-79
2023/12/18 04:32:19;;;;;;;15.17;11.13;;;;;;;-1.03;100.00;99955.25;5075407;28;20227;-79
2023/12/18 04:34:45;;;;;;;16.17;10.17;;;;;;;-1.03;100.00;99945.75;5074964;28;20211;-79
2023/12/18 04:37:12;;;;;;;16.00;10.03;;;;;;;-1.11;100.00;99946.56;5075196;28;20206;-78
2023/12/18 04:39:40;;;;;;;17.03;11.13;;;;;;;-1.12;100.00;99944.81;5075265;28;20217;-79
2023/12/18 04:42:06;;;;;;;16.57;9.97;;;;;;;-1.10;100.00;99956.06;5075006;28;20226;-79
2023/12/18 04:44:33;;;;;;;18.83;10.83;;;;;;;-1.03;100.00;99956.13;5074229;28;20232;-78
2023/12/18 04:47:01;;;;;;;16.40;10.73;;;;;;;-0.99;100.00;99967.38;5074728;28;20254;-79
2023/12/18 04:49:27;;;;;;;14.97;10.70;;;;;;;-0.97;100.00;99953.56;5074892;28;20213;-78
2023/12/18 04:51:54;;;;;;;15.30;10.70;;;;;;;-0.95;100.00;99948.34;5075049;28;20579;-79
2023/12/18 04:54:20;;;;;;;15.57;9.77;;;;;;;-0.94;100.00;99960.47;5074639;28;20580;-79
2023/12/18 04:56:48;;;;;;;14.43;10.53;;;;;;;-0.92;100.00;99958.75;5074611;28;20225;-79
2023/12/18 04:59:14;;;;;;;15.70;10.27;;;;;;;-0.91;100.00;99955.31;5074660;28;20214;-79
2023/12/18 05:01:41;;;;;;;14.37;10.30;;;;;;;-0.92;100.00;99958.75;5075212;28;20241;-79
2023/12/18 05:04:07;;;;;;;15.23;10.40;;;;;;;-0.84;100.00;99959.66;5075419;28;20218;-79
2023/12/18 05:06:34;;;;;;;15.53;10.13;;;;;;;-0.83;100.00;99959.66;5074492;28;20230;-79
2023/12/18 05:09:00;;;;;;;15.43;10.30;;;;;;;-0.85;100.00;99965.72;5074917;28;20213;-79
2023/12/18 05:11:27;;;;;;;16.40;10.13;;;;;;;-0.89;100.00;99963.94;5075058;28;20229;-79
2023/12/18 05:13:55;;;;;;;14.90;10.73;;;;;;;-0.91;100.00;99960.50;5074748;28;20211;-81
2023/12/18 05:16:21;;;;;;;17.63;10.57;;;;;;;-0.86;100.00;99958.78;5074057;28;20214;-78
2023/12/18 05:18:48;;;;;;;16.70;10.10;;;;;;;-0.85;100.00;99963.13;5075182;28;20685;-78
2023/12/18 05:21:15;;;;;;;15.50;10.63;;;;;;;-0.84;100.00;99957.94;5074504;28;20231;-78
2023/12/18 05:23:41;;;;;;;18.53;9.83;;;;;;;-0.86;100.00;99944.06;5075230;28;20214;-78
2023/12/18 05:26:08;;;;;;;12.73;9.23;;;;;;;-0.85;100.00;99950.13;5074593;28;20238;-78
2023/12/18 05:28:35;;;;;;;16.47;10.83;;;;;;;-0.82;100.00;99944.94;5075047;28;20665;-78
2023/12/18 05:31:03;;;;;;;14.30;9.90;;;;;;;-0.85;100.00;99952.75;5075309;28;20215;-79
2023/12/18 05:33:29;;;;;;;16.07;10.83;;;;;;;-0.90;100.00;99951.84;5075723;28;20208;-80
2023/12/18 05:35:56;;;;;;;13.20;9.50;;;;;;;-0.91;100.00;99952.69;5072894;28;20209;-80
2023/12/18 05:38:22;;;;;;;13.17;9.30;;;;;;;-0.91;100.00;99950.09;5075361;28;20230;-80
2023/12/18 05:40:49;;;;;;;16.40;9.73;;;;;;;-0.90;100.00;99946.66;5075026;28;20217;-80
2023/12/18 05:43:15;;;;;;;17.13;10.23;;;;;;;-0.91;100.00;99947.50;5075242;28;20206;-79
2023/12/18 05:45:41;;;;;;;16.33;9.60;;;;;;;-0.88;100.00;99950.09;5074467;28;20230;-79
2023/12/18 05:48:09;;;;;;;16.53;10.47;;;;;;;-0.84;100.00;99941.47;5074475;28;20660;-78
2023/12/18 05:50:36;;;;;;;13.43;9.20;;;;;;;-0.91;100.00;99950.09;5074812;28;20220;-78
2023/12/18 05:53:02;;;;;;;13.27;9.80;;;;;;;-0.92;100.00;99951.81;5074480;28;20235;-78
2023/12/18 05:55:29;;;;;;;15.07;9.77;;;;;;;-0.92;100.00;99958.75;5074301;28;20524;-78
2023/12/18 05:57:55;;;;;;;15.13;9.97;;;;;;;-0.94;100.00;99956.16;5078332;28;20211;-78
2023/12/18 06:00:23;;;;;;;14.90;10.13;;;;;;;-0.96;100.00;99959.59;5077948;28;20210;-78
2023/12/18 06:02:49;;;;;;;13.77;9.50;;;;;;;-1.05;100.00;99962.16;5077993;28;20246;-78
2023/12/18 06:05:17;;;;;;;17.87;10.60;;;;;;;-1.16;100.00;99953.44;5077598;28;20214;-80
2023/12/18 06:07:44;;;;;;;14.73;9.53;;;;;;;-1.25;100.00;99954.25;5078530;28;20216;-81
2023/12/18 06:10:10;;;;;;;14.10;9.70;;;;;;;-1.28;100.00;99956.84;5079299;28;20213;-78
2023/12/18 06:12:37;;;;;;;15.33;10.00;;;;;;;-1.20;100.00;99959.44;5078061;28;20237;-80
2023/12/18 06:15:05;;;;;;;12.73;9.57;;;;;;;-1.20;100.00;99967.22;5077975;28;20228;-79
2023/12/18 06:17:31;;;;;;;17.90;10.67;;;;;;;-1.15;100.00;99965.53;5078704;28;20584;-79
2023/12/18 06:19:58;;;;;;;16.27;10.50;;;;;;;-1.21;100.00;99970.69;5078681;28;20225;-79
2023/12/18 06:22:26;;;;;;;16.53;11.03;;;;;;;-1.25;100.00;99964.63;5078348;28;20226;-79
2023/12/18 06:24:52;;;;;;;17.87;10.57;;;;;;;-1.34;100.00;99963.69;5076968;28;20211;-79
2023/12/18 06:27:19;;;;;;;13.07;9.70;;;;;;;-1.40;100.00;99974.03;5078155;28;20253;-79
2023/12/18 06:29:45;;;;;;;15.97;9.80;;;;;;;-1.48;100.00;99970.50;5077938;28;20213;-79
2023/12/18 06:32:12;;;;;;;17.70;10.40;;;;;;;-1.52;100.00;99969.63;5077537;28;20236;-79
2023/12/18 06:34:39;;;;;;;15.50;10.77;;;;;;;-1.50;100.00;99967.91;5077439;28;20300;-79
2023/12/18 06:37:06;;;;;;;16.13;10.43;;;;;;;-1.44;100.00;99967.06;5075556;28;20224;-78
2023/12/18 06:39:34;;;;;;;17.83;11.20;;;;;;;-1.38;100.00;99975.78;5075126;28;20217;-78
2023/12/18 06:42:00;;;;;;;14.97;10.03;;;;;;;-1.34;100.00;99968.88;5074873;28;20229;-79
2023/12/18 06:44:28;;;;;;;15.03;10.43;;;;;;;-1.34;100.00;99979.25;5074515;28;20683;-78
2023/12/18 06:46:54;;;;;;;15.20;9.73;;;;;;;-1.35;100.00;99983.56;5074084;28;20230;-79
2023/12/18 06:49:21;;;;;;;13.90;9.63;;;;;;;-1.37;100.00;99985.28;5075040;28;20207;-79
2023/12/18 06:51:49;;;;;;;15.07;9.77;;;;;;;-1.35;100.00;99987.91;5074504;28;20234;-78
2023/12/18 06:54:16;;;;;;;16.47;9.77;;;;;;;-1.38;100.00;99978.38;5074275;28;20215;-78
2023/12/18 06:56:44;;;;;;;15.30;9.47;;;;;;;-1.40;100.00;99985.28;5074096;28;20202;-79
2023/12/18 06:59:10;;;;;;;14.13;8.73;;;;;;;-1.37;100.00;99992.19;5074461;28;20217;-78
2023/12/18 07:01:37;;;;;;;16.33;10.77;;;;;;;-1.34;100.00;99979.25;5073878;28;20234;-79
2023/12/18 07:04:03;;;;;;;15.07;10.33;;;;;;;-1.27;100.00;99981.03;5074614;28;20215;-79
2023/12/18 07:06:30;;;;;;;13.57;9.70;;;;;;;-1.27;100.00;99986.22;5074216;28;20460;-78
2023/12/18 07:08:58;;;;;;;16.30;10.07;;;;;;;-1.29;100.00;99988.78;5073820;28;20774;-78
2023/12/18 07:11:24;;;;;;;16.10;9.93;;;;;;;-1.23;100.00;99988.84;5075039;28;20235;-78
2023/12/18 07:13:53;;;;;;;16.30;10.27;;;;;;;-1.21;100.00;99981.06;5074603;28;20700;-78
2023/12/18 07:16:20;;;;;;;16.57;9.77;;;;;;;-1.23;100.00;99983.66;5074712;28;20210;-78
2023/12/18 07:18:46;;;;;;;16.83;10.13;;;;;;;-1.21;100.00;99989.72;5076635;28;20222;-78
2023/12/18 07:21:13;;;;;;;14.43;9.73;;;;;;;-1.23;100.00;99995.75;5076371;28;20728;-79
2023/12/18 07:23:42;;;;;;;14.97;10.20;;;;;;;-1.24;100.00;99997.47;5076340;28;20207;-78
2023/12/18 07:26:12;;;;;;;16.63;10.47;;;;;;;-1.24;100.00;100009.59;5075734;28;20723;-78
2023/12/18 07:28:38;;;;;;;14.73;10.53;;;;;;;-1.18;100.00;99999.25;5077451;28;20214;-79
2023/12/18 07:31:06;;;;;;;13.77;10.10;;;;;;;-1.19;100.00;100005.28;5077272;28;20241;-77
2023/12/18 07:33:33;;;;;;;16.33;9.73;;;;;;;-1.18;100.00;100009.63;5075996;28;20436;-77
2023/12/18 07:36:00;;;;;;;14.23;8.93;;;;;;;-1.20;100.00;100014.81;5083643;28;20223;-78
2023/12/18 07:38:26;;;;;;;13.77;9.47;;;;;;;-1.21;100.00;100007.88;5085291;28;20573;-77
2023/12/18 07:40:53;;;;;;;15.33;9.60;;;;;;;-1.14;100.00;100003.59;5078917;28;20217;-77
2023/12/18 07:43:19;;;;;;;15.20;10.13;;;;;;;-1.09;100.00;100007.97;5072464;28;20210;-79
2023/12/18 07:45:46;;;;;;;14.03;9.67;;;;;;;-1.00;100.00;100013.22;5075261;28;20312;-82
2023/12/18 07:48:13;;;;;;;14.50;9.97;;;;;;;-1.00;100.00;100012.34;5075030;28;20217;-78
2023/12/18 07:50:40;;;;;;;15.20;9.77;;;;;;;-0.96;100.00;100016.69;5074658;28;20211;-80
2023/12/18 07:53:06;;;;;;;16.00;9.97;;;;;;;-0.93;100.00;100027.09;5076618;28;20234;-81
2023/12/18 07:55:33;;;;;;;14.30;10.67;;;;;;;-0.82;100.00;100018.50;5072230;28;20210;-78
2023/12/18 07:57:59;;;;;;;15.03;10.07;;;;;;;-0.78;100.00;100014.19;5073420;28;20207;-79
2023/12/18 08:00:26;;;;;;;15.43;10.43;;;;;;;-0.71;100.00;100011.66;5072940;28;20218;-79
2023/12/18 08:02:52;;;;;;;14.60;9.97;;;;;;;-0.68;100.00;100021.19;5072940;28;20241;-80
2023/12/18 08:05:20;;;;;;;17.10;11.10;;;;;;;-0.73;100.00;100023.75;5075497;28;20211;-79
2023/12/18 08:07:47;;;;;;;22.07;15.60;;;;;;;-0.64;100.00;100022.91;5072151;28;20461;-81
2023/12/18 08:10:13;;;;;;;16.63;11.50;;;;;;;-0.69;100.00;100019.47;5064687;28;20264;-81
2023/12/18 08:12:40;;;;;;;15.90;11.07;;;;;;;-0.61;100.00;100012.56;5074486;28;20239;-81
2023/12/18 08:15:08;;;;;;;18.27;11.40;;;;;;;-0.62;100.00;100016.03;5085414;28;20250;-83
2023/12/18 08:17:37;;;;;;;16.17;11.60;;;;;;;-0.51;100.00;100019.53;5072148;28;20200;-82
2023/12/18 08:20:06;;;;;;;15.77;11.30;;;;;;;-0.53;100.00;100023.84;5072828;28;20615;-80
2023/12/18 08:22:34;;;;;;;15.07;10.57;;;;;;;-0.44;100.00;100014.38;5075993;28;20310;-82
2023/12/18 08:25:02;;;;;;;14.67;10.13;;;;;;;-0.45;100.00;100007.44;5077477;28;20214;-82
2023/12/18 08:27:32;;;;;;;16.47;10.20;;;;;;;-0.47;100.00;100006.56;5074927;28;20330;-81
2023/12/18 08:29:59;;;;;;;15.10;10.30;;;;;;;-0.43;100.00;100004.84;5075606;28;20245;-82
2023/12/18 08:32:25;;;;;;;13.90;9.97;;;;;;;-0.41;100.00;100005.72;5078241;28;20231;-82
2023/12/18 08:34:51;;;;;;;16.70;10.87;;;;;;;-0.31;100.00;100007.50;5079083;28;20219;-82
2023/12/18 08:37:18;;;;;;;15.10;10.47;;;;;;;-0.34;100.00;100002.28;5080338;28;20234;-82
2023/12/18 08:39:46;;;;;;;17.10;10.90;;;;;;;-0.28;100.00;100009.22;5079653;28;20693;-81
2023/12/18 08:42:13;;;;;;;21.45;13.75;;;;;;;-0.19;100.00;100010.97;5076886;28;20434;-81
2023/12/18 08:44:40;;;;;;;18.87;11.27;;;;;;;-0.17;100.00;100007.53;5077304;28;20215;-80
2023/12/18 08:47:07;;;;;;;13.93;10.37;;;;;;;-0.13;100.00;100004.97;5074514;28;20227;-81
2023/12/18 08:49:33;;;;;;;16.17;10.23;;;;;;;-0.07;100.00;100004.09;5076313;28;20215;-81
2023/12/18 08:51:59;;;;;;;16.27;10.67;;;;;;;0.02;100.00;99998.06;5076056;28;20241;-81
2023/12/18 08:54:26;;;;;;;17.70;10.27;;;;;;;0.07;100.00;99999.78;5075752;28;20210;-81
2023/12/18 08:56:54;;;;;;;17.90;10.57;;;;;;;0.07;100.00;100007.59;5073011;28;20211;-78
2023/12/18 08:59:20;;;;;;;15.90;10.97;;;;;;;0.12;100.00;100013.66;5071629;28;20673;-78
2023/12/18 09:01:47;;;;;;;17.83;11.33;;;;;;;0.26;100.00;100009.34;5071280;28;20258;-79
2023/12/18 09:04:13;;;;;;;16.40;11.30;;;;;;;0.37;100.00;100018.03;5075906;28;20207;-80
2023/12/18 09:06:40;;;;;;;19.73;11.77;;;;;;;0.48;100.00;100008.50;5074823;28;20227;-79
2023/12/18 09:09:06;;;;;;;14.77;11.10;;;;;;;0.54;100.00;100005.03;5075180;28;20237;-80
2023/12/18 09:11:35;;;;;;;17.13;11.57;;;;;;;0.46;100.00;100007.66;5076529;28;20231;-80
2023/12/18 09:14:03;;;;;;;17.93;11.27;;;;;;;0.49;100.00;100005.03;5075942;28;20264;-80
2023/12/18 09:16:30;;;;;;;17.73;11.63;;;;;;;0.50;100.00;100009.38;5072450;28;20214;-80
2023/12/18 09:18:56;;;;;;;17.25;10.50;;;;;;;0.51;100.00;100000.69;5072989;28;20877;-81
2023/12/18 09:21:23;;;;;;;15.97;10.30;;;;;;;0.52;100.00;100012.88;5074483;28;20231;-79
2023/12/18 09:23:50;;;;;;;16.10;10.27;;;;;;;0.56;100.00;99998.13;5074147;28;20685;-80
2023/12/18 09:26:17;;;;;;;14.03;10.50;;;;;;;0.56;100.00;99991.16;5074317;28;20260;-79
2023/12/18 09:28:43;;;;;;;17.27;10.80;;;;;;;0.58;100.00;99985.97;5073678;28;20212;-78
2023/12/18 09:31:11;;;;;;;14.40;10.77;;;;;;;0.63;100.00;99982.47;5073317;28;20700;-79
2023/12/18 09:33:38;;;;;;;17.33;11.03;;;;;;;0.68;100.00;99980.75;5072319;28;20229;-78
2023/12/18 09:36:07;;;;;;;22.52;17.00;;;;;;;0.79;100.00;99971.19;5070823;28;20428;-77
2023/12/18 09:38:34;;;;;;;15.80;11.70;;;;;;;0.80;100.00;99969.47;5073589;28;20211;-80
2023/12/18 09:41:00;;;;;;;17.90;12.20;;;;;;;0.84;100.00;99974.66;5073787;28;20329;-79
2023/12/18 09:43:27;;;;;;;18.13;10.80;;;;;;;0.82;100.00;99973.81;5073241;28;20211;-79
2023/12/18 09:45:55;;;;;;;15.10;10.63;;;;;;;0.85;100.00;99965.09;5073044;28;20264;-80
2023/12/18 09:48:24;;;;;;;15.03;10.90;;;;;;;0.88;100.00;99966.00;5072400;28;20576;-79
2023/12/18 09:50:51;;;;;;;15.63;10.87;;;;;;;0.93;100.00;99969.44;5072092;28;20269;-79
2023/12/18 09:53:20;;;;;;;15.23;10.70;;;;;;;0.97;100.00;99959.88;5076074;28;20207;-79
2023/12/18 09:55:51;;;;;;;15.83;11.23;;;;;;;1.04;100.00;99957.25;5076655;28;20265;-79
2023/12/18 09:58:19;;;;;;;15.17;10.37;;;;;;;1.05;100.00;99956.38;5078918;28;20208;-80
2023/12/18 10:00:47;;;;;;;17.10;10.83;;;;;;;1.11;100.00;99973.75;5075847;28;20286;-80
2023/12/18 10:03:16;;;;;;;15.30;11.03;;;;;;;1.13;100.00;99965.06;5075447;28;20222;-79
2023/12/18 10:05:45;;;;;;;16.63;10.80;;;;;;;1.21;100.00;99960.69;5073220;28;20759;-77
2023/12/18 10:08:12;;;;;;;14.57;10.50;;;;;;;1.21;100.00;99960.69;5072723;28;20569;-77
2023/12/18 10:10:39;;;;;;;16.00;11.23;;;;;;;1.27;100.00;99952.84;5072829;28;20212;-77
2023/12/18 10:13:07;;;;;;;16.20;11.23;;;;;;;1.38;100.00;99958.91;5073313;28;20738;-81
2023/12/18 10:15:35;;;;;;;15.63;11.63;;;;;;;1.44;100.00;99948.47;5072178;28;20218;-79
2023/12/18 10:18:02;;;;;;;17.10;11.87;;;;;;;1.47;100.00;99948.41;5072080;28;20678;-79
2023/12/18 10:20:29;;;;;;;16.93;11.67;;;;;;;1.52;100.00;99938.84;5071929;28;20717;-80
2023/12/18 10:22:59;;;;;;;17.10;11.77;;;;;;;1.58;100.00;99936.22;5071818;28;20231;-79
2023/12/18 10:25:26;;;;;;;18.00;11.80;;;;;;;1.61;100.00;99935.34;5071429;28;20203;-79
2023/12/18 10:27:55;;;;;;;16.00;12.40;;;;;;;1.64;100.00;99930.97;5071651;28;20250;-79
2023/12/18 10:30:25;;;;;;;14.10;11.00;;;;;;;1.69;100.00;99939.66;5071456;28;20584;-79
2023/12/18 10:32:52;;;;;;;16.13;11.27;;;;;;;1.79;100.00;99936.09;5070859;28;20240;-79
2023/12/18 10:35:18;;;;;;;15.43;10.37;;;;;;;1.84;100.00;99923.91;5070572;28;20207;-80
2023/12/18 10:37:49;;;;;;;13.63;10.03;;;;;;;1.94;100.00;99922.97;5071268;28;20693;-79
2023/12/18 10:40:19;;;;;;;13.53;10.40;;;;;;;2.01;100.00;99916.84;5071547;28;20263;-80
2023/12/18 10:42:56;;;;;;;14.57;8.87;;;;;;;2.23;100.00;99912.31;5071753;28;20238;-79
2023/12/18 10:45:23;;;;;;;16.33;9.57;;;;;;;2.28;100.00;99910.53;5074374;28;20222;-81
2023/12/18 10:47:50;;;;;;;12.90;8.50;;;;;;;2.28;100.00;99908.78;5074442;28;20238;-81
2023/12/18 10:50:17;;;;;;;11.03;8.60;;;;;;;2.29;100.00;99907.94;5075263;28;20318;-79
2023/12/18 10:52:47;;;;;;;15.40;10.97;;;;;;;2.43;100.00;99903.44;5074678;28;20231;-80
2023/12/18 10:55:16;;;;;;;14.40;9.90;;;;;;;2.63;100.00;99904.13;5074141;28;20530;-79
2023/12/18 10:57:45;;;;;;;13.17;9.53;;;;;;;2.76;100.00;99900.50;5074634;28;20685;-81
2023/12/18 11:00:15;;;;;;;12.17;8.40;;;;;;;2.74;100.00;99902.28;5075263;28;20226;-82
2023/12/18 11:02:43;;;;;;;12.97;9.13;;;;;;;2.73;100.00;99900.56;5077146;28;20239;-80
2023/12/18 11:05:13;;;;;;;13.57;10.43;;;;;;;2.74;100.00;99896.19;5075936;28;20207;-79
2023/12/18 11:07:41;;;;;;;13.53;10.63;;;;;;;2.80;100.00;99898.72;5074847;28;20243;-81